createdAt,value
2022-09-02T00:01:47.604Z,13.96
2022-09-02T00:04:18.103Z,13.94
2022-09-02T00:06:46.453Z,13.92
2022-09-02T00:09:15.598Z,13.91
2022-09-02T00:11:43.719Z,13.88
2022-09-02T00:14:16.442Z,13.88
2022-09-02T00:16:45.262Z,13.85
2022-09-02T00:19:12.016Z,13.85
2022-09-02T00:21:38.658Z,13.84
2022-09-02T00:24:05.970Z,13.80
2022-09-02T00:26:32.908Z,13.77
2022-09-02T00:28:59.554Z,13.74
2022-09-02T00:31:29.045Z,13.70
2022-09-02T00:33:56.340Z,13.66
2022-09-02T00:36:22.980Z,13.64
2022-09-02T00:38:49.914Z,13.60
2022-09-02T00:41:18.830Z,13.57
2022-09-02T00:44:03.932Z,13.54
2022-09-02T00:46:32.196Z,13.50
2022-09-02T00:49:12.632Z,13.47
2022-09-02T00:51:54.990Z,13.42
2022-09-02T00:54:24.168Z,13.39
2022-09-02T00:56:53.906Z,13.38
2022-09-02T00:59:43.439Z,13.34
2022-09-02T01:02:10.953Z,13.32
2022-09-02T01:04:37.623Z,13.32
2022-09-02T01:07:04.487Z,13.34
2022-09-02T01:09:33.402Z,13.39
2022-09-02T01:12:03.095Z,13.45
2022-09-02T01:14:30.361Z,13.51
2022-09-02T01:17:01.394Z,13.57
2022-09-02T01:19:53.504Z,13.64
2022-09-02T01:22:24.110Z,13.68
2022-09-02T01:24:50.773Z,13.71
2022-09-02T01:27:21.860Z,13.74
2022-09-02T01:29:57.749Z,13.77
2022-09-02T01:32:25.549Z,13.77
2022-09-02T01:34:52.177Z,13.74
2022-09-02T01:37:19.785Z,13.71
2022-09-02T01:39:46.867Z,13.69
2022-09-02T01:42:14.522Z,13.64
2022-09-02T01:44:45.275Z,13.57
2022-09-02T01:47:14.938Z,13.53
2022-09-02T01:49:41.953Z,13.45
2022-09-02T01:52:09.207Z,13.39
2022-09-02T01:54:37.035Z,13.33
2022-09-02T01:57:03.693Z,13.27
2022-09-02T01:59:30.999Z,13.21
2022-09-02T02:01:58.457Z,13.15
2022-09-02T02:04:25.371Z,13.08
2022-09-02T02:06:53.510Z,13.01
2022-09-02T02:09:21.712Z,12.97
2022-09-02T02:11:50.117Z,12.91
2022-09-02T02:14:17.763Z,12.87
2022-09-02T02:16:49.011Z,12.82
2022-09-02T02:19:15.569Z,12.77
2022-09-02T02:21:42.695Z,12.72
2022-09-02T02:24:09.651Z,12.67
2022-09-02T02:26:36.878Z,12.63
2022-09-02T02:29:05.028Z,12.58
2022-09-02T02:31:32.360Z,12.54
2022-09-02T02:33:59.813Z,12.47
2022-09-02T02:36:26.566Z,12.41
2022-09-02T02:38:53.392Z,12.37
2022-09-02T02:41:20.766Z,12.31
2022-09-02T02:43:47.896Z,12.27
2022-09-02T02:46:15.632Z,12.24
2022-09-02T02:48:42.697Z,12.20
2022-09-02T02:51:10.382Z,12.14
2022-09-02T02:53:38.341Z,12.10
2022-09-02T02:56:05.837Z,12.07
2022-09-02T02:58:32.521Z,12.03
2022-09-02T03:01:00.902Z,12.01
2022-09-02T03:03:29.116Z,11.99
2022-09-02T03:05:57.737Z,11.94
2022-09-02T03:08:26.806Z,11.92
2022-09-02T03:10:55.584Z,11.89
2022-09-02T03:13:26.088Z,11.85
2022-09-02T03:15:54.288Z,11.80
2022-09-02T03:18:22.263Z,11.75
2022-09-02T03:20:50.055Z,11.70
2022-09-02T03:23:17.957Z,11.66
2022-09-02T03:25:47.761Z,11.61
2022-09-02T03:28:27.008Z,11.58
2022-09-02T03:30:54.365Z,11.53
2022-09-02T03:33:22.292Z,11.50
2022-09-02T03:35:48.931Z,11.45
2022-09-02T03:38:15.678Z,11.43
2022-09-02T03:40:44.263Z,11.39
2022-09-02T03:43:10.955Z,11.36
2022-09-02T03:45:41.624Z,11.34
2022-09-02T03:48:13.467Z,11.32
2022-09-02T03:50:44.692Z,11.29
2022-09-02T03:53:18.354Z,11.26
2022-09-02T03:55:50.935Z,11.22
2022-09-02T03:58:19.811Z,11.19
2022-09-02T04:00:52.838Z,11.15
2022-09-02T04:03:21.656Z,11.12
2022-09-02T04:05:50.823Z,11.08
2022-09-02T04:08:19.380Z,11.04
2022-09-02T04:10:46.848Z,11.01
2022-09-02T04:13:13.443Z,10.97
2022-09-02T04:15:47.946Z,10.94
2022-09-02T04:18:17.481Z,10.90
2022-09-02T04:20:44.898Z,10.87
2022-09-02T04:23:12.197Z,10.83
2022-09-02T04:25:43.234Z,10.80
2022-09-02T04:28:11.159Z,10.79
2022-09-02T04:30:42.124Z,10.76
2022-09-02T04:33:09.797Z,10.74
2022-09-02T04:35:43.915Z,10.72
2022-09-02T04:38:14.178Z,10.71
2022-09-02T04:40:46.131Z,10.68
2022-09-02T04:43:14.512Z,10.66
2022-09-02T04:45:43.391Z,10.65
2022-09-02T04:48:12.309Z,10.62
2022-09-02T04:50:41.964Z,10.62
2022-09-02T04:53:09.577Z,10.61
2022-09-02T04:55:39.835Z,10.61
2022-09-02T04:58:10.104Z,10.63
2022-09-02T05:00:39.069Z,10.65
2022-09-02T05:03:08.144Z,10.66
2022-09-02T05:05:35.502Z,10.66
2022-09-02T05:08:04.640Z,10.68
2022-09-02T05:10:33.360Z,10.70
2022-09-02T05:13:00.795Z,10.71
2022-09-02T05:15:28.856Z,10.73
2022-09-02T05:17:55.506Z,10.75
2022-09-02T05:20:22.120Z,10.78
2022-09-02T05:22:51.261Z,10.81
2022-09-02T05:25:18.554Z,10.85
2022-09-02T05:27:45.964Z,10.90
2022-09-02T05:30:12.727Z,10.97
2022-09-02T05:32:41.266Z,11.03
2022-09-02T05:35:08.726Z,11.09
2022-09-02T05:37:36.519Z,11.16
2022-09-02T05:40:05.747Z,11.24
2022-09-02T05:42:36.182Z,11.32
2022-09-02T05:45:04.509Z,11.41
2022-09-02T05:47:34.196Z,11.49
2022-09-02T05:50:03.916Z,11.58
2022-09-02T05:52:34.155Z,11.65
2022-09-02T05:55:01.126Z,11.73
2022-09-02T05:57:27.615Z,11.80
2022-09-02T06:00:00.696Z,11.88
2022-09-02T06:02:40.173Z,11.95
2022-09-02T06:05:12.079Z,12.03
2022-09-02T06:07:42.562Z,12.11
2022-09-02T06:10:09.305Z,12.18
2022-09-02T06:12:40.604Z,12.27
2022-09-02T06:15:10.339Z,12.35
2022-09-02T06:17:38.778Z,12.41
2022-09-02T06:20:06.235Z,12.51
2022-09-02T06:22:33.286Z,12.60
2022-09-02T06:24:59.898Z,12.69
2022-09-02T06:27:27.196Z,12.78
2022-09-02T06:29:55.139Z,12.85
2022-09-02T06:32:24.284Z,12.93
2022-09-02T06:34:56.361Z,13.00
2022-09-02T06:37:25.099Z,13.08
2022-09-02T06:39:52.010Z,13.18
2022-09-02T06:42:23.941Z,13.29
2022-09-02T06:45:07.789Z,13.39
2022-09-02T06:47:35.724Z,13.50
2022-09-02T06:50:02.888Z,13.59
2022-09-02T06:52:29.876Z,13.66
2022-09-02T06:54:56.657Z,13.76
2022-09-02T06:57:24.678Z,13.86
2022-09-02T07:00:01.841Z,13.95
2022-09-02T07:02:32.367Z,14.00
2022-09-02T07:05:11.637Z,14.06
2022-09-02T07:07:41.396Z,14.15
2022-09-02T07:10:13.758Z,14.21
2022-09-02T07:12:44.168Z,14.27
2022-09-02T07:15:14.701Z,14.33
2022-09-02T07:17:42.629Z,14.38
2022-09-02T07:20:13.882Z,14.45
2022-09-02T07:25:19.798Z,14.62
2022-09-02T07:27:51.323Z,14.71
2022-09-02T07:30:18.311Z,14.80
2022-09-02T07:32:47.998Z,14.88
2022-09-02T07:35:15.948Z,14.93
2022-09-02T07:37:43.560Z,15.01
2022-09-02T07:40:11.543Z,15.07
2022-09-02T07:42:38.579Z,15.15
2022-09-02T07:45:06.753Z,15.26
2022-09-02T07:47:34.764Z,15.36
2022-09-02T07:50:21.521Z,15.45
2022-09-02T07:52:58.146Z,15.53
2022-09-02T07:55:27.551Z,15.62
2022-09-02T07:57:55.672Z,15.69
2022-09-02T08:00:27.400Z,15.79
2022-09-02T08:02:55.697Z,15.90
2022-09-02T08:05:28.530Z,16.01
2022-09-02T08:07:55.089Z,16.09
2022-09-02T08:10:23.381Z,16.18
2022-09-02T08:12:51.312Z,16.28
2022-09-02T08:15:20.065Z,16.38
2022-09-02T08:17:47.681Z,16.49
2022-09-02T08:20:17.903Z,16.60
2022-09-02T08:22:47.943Z,16.68
2022-09-02T08:25:21.154Z,16.78
2022-09-02T08:27:49.417Z,16.90
2022-09-02T08:30:16.067Z,17.00
2022-09-02T08:32:42.578Z,17.12
2022-09-02T08:35:10.721Z,17.20
2022-09-02T08:37:38.312Z,17.31
2022-09-02T08:40:08.245Z,17.36
2022-09-02T08:42:44.654Z,17.44
2022-09-02T08:45:30.440Z,17.56
2022-09-02T08:48:27.914Z,17.66
2022-09-02T08:51:01.053Z,17.74
2022-09-02T08:53:36.347Z,17.82
2022-09-02T08:56:05.772Z,17.88
2022-09-02T08:58:42.283Z,17.95
2022-09-02T09:01:25.859Z,18.04
2022-09-02T09:04:12.279Z,18.09
2022-09-02T09:06:55.929Z,18.15
2022-09-02T09:09:45.474Z,18.21
2022-09-02T09:12:37.171Z,18.30
2022-09-02T09:15:16.492Z,18.40
2022-09-02T09:17:59.435Z,18.48
2022-09-02T09:20:32.966Z,18.60
2022-09-02T09:23:01.859Z,18.65
2022-09-02T09:25:32.597Z,18.72
2022-09-02T09:28:00.727Z,18.79
2022-09-02T09:30:28.432Z,18.86
2022-09-02T09:32:59.810Z,18.92
2022-09-02T09:35:27.769Z,19.00
2022-09-02T09:37:55.898Z,19.05
2022-09-02T09:40:31.727Z,19.11
2022-09-02T09:43:14.650Z,19.15
2022-09-02T09:45:49.925Z,19.21
2022-09-02T09:48:33.433Z,19.28
2022-09-02T09:50:59.887Z,19.33
2022-09-02T09:53:28.868Z,19.41
2022-09-02T09:56:07.547Z,19.48
2022-09-02T09:58:40.090Z,19.57
2022-09-02T10:01:18.403Z,19.63
2022-09-02T10:03:55.751Z,19.69
2022-09-02T10:06:31.735Z,19.74
2022-09-02T10:09:15.761Z,19.78
2022-09-02T10:11:56.862Z,19.82
2022-09-02T10:14:26.585Z,19.86
2022-09-02T10:17:07.819Z,19.97
2022-09-02T10:20:04.644Z,20.08
2022-09-02T10:22:59.416Z,20.14
2022-09-02T10:25:43.607Z,20.18
2022-09-02T10:28:31.129Z,20.22
2022-09-02T10:31:26.375Z,20.26
2022-09-02T10:34:16.063Z,20.25
2022-09-02T10:37:09.286Z,20.26
2022-09-02T10:39:58.674Z,20.31
2022-09-02T10:42:34.565Z,20.53
2022-09-02T10:45:17.935Z,20.54
2022-09-02T10:48:03.638Z,20.44
2022-09-02T10:50:55.568Z,20.45
2022-09-02T10:53:46.451Z,20.48
2022-09-02T10:56:19.114Z,20.58
2022-09-02T10:58:50.021Z,20.57
2022-09-02T11:01:22.945Z,20.60
2022-09-02T11:04:12.737Z,20.72
2022-09-02T11:07:01.891Z,20.90
2022-09-02T11:09:42.044Z,21.01
2022-09-02T11:12:16.724Z,21.09
2022-09-02T11:15:04.644Z,21.23
2022-09-02T11:17:38.541Z,21.31
2022-09-02T11:20:14.189Z,21.34
2022-09-02T11:22:54.470Z,21.32
2022-09-02T11:25:44.981Z,21.34
2022-09-02T11:28:33.041Z,21.42
2022-09-02T11:31:24.720Z,21.45
2022-09-02T11:34:35.875Z,21.46
2022-09-02T11:37:05.025Z,21.52
2022-09-02T11:39:53.943Z,21.56
2022-09-02T11:42:50.660Z,21.73
2022-09-02T11:45:30.700Z,21.83
2022-09-02T11:48:17.443Z,21.86
2022-09-02T11:50:50.032Z,21.86
2022-09-02T11:53:31.653Z,21.87
2022-09-02T11:56:16.592Z,21.83
2022-09-02T11:58:49.566Z,21.88
2022-09-02T12:01:16.218Z,21.85
2022-09-02T12:04:16.276Z,21.80
2022-09-02T12:06:37.590Z,21.86
2022-09-02T12:09:09.590Z,21.93
2022-09-02T12:11:42.336Z,22.02
2022-09-02T12:14:25.585Z,22.21
2022-09-02T12:17:03.811Z,22.30
2022-09-02T12:19:42.415Z,22.43
2022-09-02T12:22:16.279Z,22.50
2022-09-02T12:24:55.201Z,22.62
2022-09-02T12:27:25.753Z,22.73
2022-09-02T12:29:53.401Z,22.80
2022-09-02T12:33:09.712Z,22.91
2022-09-02T12:35:51.558Z,23.00
2022-09-02T12:38:27.618Z,23.15
2022-09-02T12:40:56.528Z,23.16
2022-09-02T12:43:31.058Z,23.11
2022-09-02T12:46:05.208Z,23.05
2022-09-02T12:48:42.555Z,23.01
2022-09-02T12:51:09.154Z,22.97
2022-09-02T12:53:40.091Z,22.91
2022-09-02T12:56:21.190Z,22.87
2022-09-02T12:58:51.331Z,22.90
2022-09-02T13:01:33.230Z,22.88
2022-09-02T13:04:15.307Z,22.84
2022-09-02T13:07:11.668Z,22.82
2022-09-02T13:09:50.029Z,22.74
2022-09-02T13:12:52.285Z,22.77
2022-09-02T13:15:23.791Z,22.80
2022-09-02T13:18:25.455Z,22.76
2022-09-02T13:21:07.056Z,22.73
2022-09-02T13:24:12.477Z,22.78
2022-09-02T13:26:54.959Z,22.95
2022-09-02T13:29:36.845Z,23.22
2022-09-02T13:32:22.161Z,23.43
2022-09-02T13:34:51.327Z,23.54
2022-09-02T13:37:38.023Z,23.63
2022-09-02T13:40:24.799Z,23.72
2022-09-02T13:42:55.271Z,23.82
2022-09-02T13:45:24.519Z,23.87
2022-09-02T13:47:54.650Z,23.88
2022-09-02T13:50:30.164Z,23.82
2022-09-02T13:55:55.657Z,23.68
2022-09-02T13:58:32.737Z,23.77
2022-09-02T14:01:38.313Z,23.74
2022-09-02T14:04:10.313Z,23.77
2022-09-02T14:06:47.608Z,23.78
2022-09-02T14:09:28.902Z,23.80
2022-09-02T14:11:57.063Z,23.77
2022-09-02T14:14:25.007Z,23.70
2022-09-02T14:16:52.636Z,23.74
2022-09-02T14:19:21.929Z,23.79
2022-09-02T14:21:58.651Z,23.85
2022-09-02T14:24:27.956Z,23.83
2022-09-02T14:26:56.934Z,23.70
2022-09-02T14:29:24.849Z,23.57
2022-09-02T14:32:14.170Z,23.51
2022-09-02T14:34:46.427Z,23.45
2022-09-02T14:37:31.019Z,23.44
2022-09-02T14:40:12.669Z,23.56
2022-09-02T14:42:56.626Z,23.68
2022-09-02T14:45:34.995Z,23.78
2022-09-02T14:48:24.947Z,23.85
2022-09-02T14:51:02.736Z,23.85
2022-09-02T14:53:30.178Z,23.84
2022-09-02T14:55:57.605Z,23.85
2022-09-02T14:58:27.499Z,23.89
2022-09-02T15:00:58.050Z,23.92
2022-09-02T15:03:25.754Z,23.92
2022-09-02T15:05:53.743Z,23.87
2022-09-02T15:08:20.672Z,23.86
2022-09-02T15:10:47.580Z,23.80
2022-09-02T15:13:25.723Z,23.70
2022-09-02T15:15:53.142Z,23.68
2022-09-02T15:18:20.119Z,23.67
2022-09-02T15:20:46.751Z,23.62
2022-09-02T15:23:13.380Z,23.65
2022-09-02T15:25:39.896Z,23.67
2022-09-02T15:28:06.461Z,23.65
2022-09-02T15:30:36.230Z,23.62
2022-09-02T15:33:04.661Z,23.54
2022-09-02T15:35:34.598Z,23.43
2022-09-02T15:38:02.914Z,23.31
2022-09-02T15:40:31.740Z,23.17
2022-09-02T15:43:00.117Z,23.08
2022-09-02T15:45:28.096Z,23.05
2022-09-02T15:47:58.349Z,23.12
2022-09-02T15:50:25.206Z,23.25
2022-09-02T15:52:55.994Z,23.49
2022-09-02T15:55:26.784Z,23.79
2022-09-02T15:57:56.632Z,24.38
2022-09-02T16:00:27.737Z,25.08
2022-09-02T16:02:57.029Z,26.32
2022-09-02T16:05:24.174Z,27.32
2022-09-02T16:07:52.108Z,28.12
2022-09-02T16:10:18.612Z,28.54
2022-09-02T16:12:45.483Z,28.08
2022-09-02T16:15:12.009Z,27.79
2022-09-02T16:17:38.621Z,28.54
2022-09-02T16:20:05.606Z,29.34
2022-09-02T16:22:32.240Z,30.35
2022-09-02T16:24:58.838Z,31.11
2022-09-02T16:27:43.869Z,31.88
2022-09-02T16:30:11.341Z,31.04
2022-09-02T16:32:37.872Z,30.82
2022-09-02T16:35:04.646Z,31.27
2022-09-02T16:37:31.210Z,32.04
2022-09-02T16:39:57.782Z,32.65
2022-09-02T16:42:24.696Z,32.97
2022-09-02T16:44:51.929Z,33.10
2022-09-02T16:47:18.766Z,33.23
2022-09-02T16:49:46.300Z,33.43
2022-09-02T16:52:13.068Z,33.44
2022-09-02T16:54:40.998Z,33.38
2022-09-02T16:57:08.177Z,33.03
2022-09-02T16:59:34.754Z,31.58
2022-09-02T17:02:01.580Z,30.34
2022-09-02T17:04:29.500Z,29.42
2022-09-02T17:06:56.796Z,28.71
2022-09-02T17:09:23.462Z,28.00
2022-09-02T17:11:50.110Z,27.31
2022-09-02T17:14:21.545Z,26.71
2022-09-02T17:16:50.087Z,26.18
2022-09-02T17:19:22.393Z,25.71
2022-09-02T17:21:51.234Z,25.28
2022-09-02T17:24:19.396Z,24.86
2022-09-02T17:26:48.387Z,24.51
2022-09-02T17:29:47.073Z,24.20
2022-09-02T17:32:04.710Z,23.89
2022-09-02T17:34:33.344Z,23.62
2022-09-02T17:36:59.977Z,23.36
2022-09-02T17:39:26.881Z,23.13
2022-09-02T17:41:59.814Z,22.93
2022-09-02T17:44:35.321Z,22.71
2022-09-02T17:47:05.779Z,22.52
2022-09-02T17:49:34.659Z,22.33
2022-09-02T17:52:01.588Z,22.13
2022-09-02T17:54:28.267Z,21.97
2022-09-02T17:57:04.966Z,21.80
2022-09-02T18:00:08.166Z,21.62
2022-09-02T18:02:36.489Z,21.43
2022-09-02T18:05:14.150Z,21.27
2022-09-02T18:07:44.281Z,21.12
2022-09-02T18:10:14.101Z,20.97
2022-09-02T18:12:42.840Z,20.81
2022-09-02T18:15:14.295Z,20.70
2022-09-02T18:17:45.836Z,20.56
2022-09-02T18:20:19.577Z,20.45
2022-09-02T18:22:55.225Z,20.33
2022-09-02T18:25:48.594Z,20.20
2022-09-02T18:28:27.258Z,20.09
2022-09-02T18:31:19.022Z,19.98
2022-09-02T18:33:54.481Z,19.88
2022-09-02T18:36:31.781Z,19.76
2022-09-02T18:39:36.230Z,19.66
2022-09-02T18:42:19.725Z,19.52
2022-09-02T18:45:04.413Z,19.43
2022-09-02T18:47:38.839Z,19.34
2022-09-02T18:50:07.063Z,19.25
2022-09-02T18:52:36.285Z,19.17
2022-09-02T18:55:07.309Z,19.09
2022-09-02T18:57:38.762Z,19.01
2022-09-02T19:00:11.635Z,18.93
2022-09-02T19:03:05.267Z,18.83
2022-09-02T19:05:35.355Z,18.73
2022-09-02T19:08:25.967Z,18.67
2022-09-02T19:11:14.784Z,18.56
2022-09-02T19:13:49.747Z,18.48
2022-09-02T19:16:18.864Z,18.41
2022-09-02T19:18:46.489Z,18.34
2022-09-02T19:21:18.831Z,18.27
2022-09-02T19:23:48.086Z,18.20
2022-09-02T19:26:14.923Z,18.14
2022-09-02T19:28:41.926Z,18.09
2022-09-02T19:31:18.056Z,18.02
2022-09-02T19:33:44.893Z,17.96
2022-09-02T19:36:11.676Z,17.90
2022-09-02T19:38:39.051Z,17.85
2022-09-02T19:41:05.629Z,17.79
2022-09-02T19:43:32.126Z,17.76
2022-09-02T19:46:01.298Z,17.69
2022-09-02T19:48:27.856Z,17.65
2022-09-02T19:50:55.178Z,17.57
2022-09-02T19:53:27.932Z,17.52
2022-09-02T19:55:54.471Z,17.48
2022-09-02T19:58:21.265Z,17.42
2022-09-02T20:00:48.358Z,17.37
2022-09-02T20:03:15.303Z,17.32
2022-09-02T20:05:42.104Z,17.27
2022-09-02T20:08:09.191Z,17.22
2022-09-02T20:10:37.793Z,17.18
2022-09-02T20:13:05.497Z,17.15
2022-09-02T20:15:36.899Z,17.12
2022-09-02T20:18:15.156Z,17.10
2022-09-02T20:20:43.715Z,17.06
2022-09-02T20:23:13.923Z,17.04
2022-09-02T20:26:17.205Z,17.05
2022-09-02T20:29:07.855Z,17.08
2022-09-02T20:32:04.607Z,17.05
2022-09-02T20:35:01.440Z,17.05
2022-09-02T20:37:32.235Z,17.04
2022-09-02T20:40:31.744Z,17.09
2022-09-02T20:43:09.421Z,17.16
2022-09-02T20:45:45.422Z,17.22
2022-09-02T20:48:30.189Z,17.28
2022-09-02T20:51:04.393Z,17.33
2022-09-02T20:53:49.415Z,17.37
2022-09-02T20:56:34.850Z,17.43
2022-09-02T20:59:01.334Z,17.48
2022-09-02T21:01:33.526Z,17.52
2022-09-02T21:04:25.946Z,17.57
2022-09-02T21:07:01.188Z,17.59
2022-09-02T21:09:27.576Z,17.60
2022-09-02T21:12:03.789Z,17.59
2022-09-02T21:15:02.024Z,17.57
2022-09-02T21:17:39.157Z,17.54
2022-09-02T21:20:23.226Z,17.52
2022-09-02T21:22:58.317Z,17.48
2022-09-02T21:25:40.275Z,17.46
2022-09-02T21:28:17.646Z,17.43
2022-09-02T21:30:48.900Z,17.43
2022-09-02T21:33:17.066Z,17.40
2022-09-02T21:35:51.088Z,17.36
2022-09-02T21:38:36.885Z,17.32
2022-09-02T21:41:12.467Z,17.28
2022-09-02T21:43:48.400Z,17.24
2022-09-02T21:46:46.938Z,17.20
2022-09-02T21:49:45.955Z,17.14
2022-09-02T21:52:41.678Z,17.10
2022-09-02T21:55:17.935Z,17.06
2022-09-02T21:57:57.046Z,17.04
2022-09-02T22:00:24.136Z,16.99
2022-09-02T22:03:21.083Z,16.92
2022-09-02T22:05:58.146Z,16.87
2022-09-02T22:08:36.565Z,16.80
2022-09-02T22:11:15.034Z,16.73
2022-09-02T22:13:42.094Z,16.70
2022-09-02T22:16:14.829Z,16.68
2022-09-02T22:19:02.412Z,16.63
2022-09-02T22:21:48.831Z,16.58
2022-09-02T22:24:20.151Z,16.51
2022-09-02T22:26:54.272Z,16.45
2022-09-02T22:29:49.163Z,16.41
2022-09-02T22:32:19.648Z,16.35
2022-09-02T22:35:24.883Z,16.29
2022-09-02T22:38:10.726Z,16.25
2022-09-02T22:40:48.551Z,16.20
2022-09-02T22:43:22.678Z,16.17
2022-09-02T22:46:17.241Z,16.12
2022-09-02T22:49:14.918Z,16.09
2022-09-02T22:52:08.864Z,16.04
2022-09-02T22:54:35.494Z,15.98
2022-09-02T22:57:04.804Z,15.96
2022-09-02T22:59:48.835Z,15.91
2022-09-02T23:02:30.501Z,15.88
2022-09-02T23:05:38.229Z,15.85
2022-09-02T23:08:08.791Z,15.82
2022-09-02T23:10:50.419Z,15.78
2022-09-02T23:13:41.131Z,15.75
2022-09-02T23:16:11.905Z,15.71
2022-09-02T23:19:07.964Z,15.69
2022-09-02T23:22:01.266Z,15.66
2022-09-02T23:24:45.258Z,15.60
2022-09-02T23:27:51.696Z,15.56
2022-09-02T23:30:18.284Z,15.51
2022-09-02T23:33:06.257Z,15.47
2022-09-02T23:35:45.632Z,15.46
2022-09-02T23:38:43.110Z,15.43
2022-09-02T23:41:11.984Z,15.38
2022-09-02T23:43:39.799Z,15.36
2022-09-02T23:46:21.957Z,15.31
2022-09-02T23:49:05.372Z,15.28
2022-09-02T23:51:59.766Z,15.24
2022-09-02T23:54:40.886Z,15.22
2022-09-02T23:57:50.621Z,15.20
